sensor_id;sensor_type;location;lat;lon;timestamp;P1;durP1;ratioP1;P2;durP2;ratioP2
81801;SDS011;71199;52.490;5.448;2023-10-31T00:01:03;9.05;;;1.60;;
81801;SDS011;71199;52.490;5.448;2023-10-31T00:03:28;7.93;;;1.92;;
81801;SDS011;71199;52.490;5.448;2023-10-31T00:05:53;7.37;;;1.63;;
81801;SDS011;71199;52.490;5.448;2023-10-31T00:08:19;4.47;;;1.50;;
81801;SDS011;71199;52.490;5.448;2023-10-31T00:10:44;8.87;;;2.33;;
81801;SDS011;71199;52.490;5.448;2023-10-31T00:13:10;6.63;;;1.70;;
81801;SDS011;71199;52.490;5.448;2023-10-31T00:15:36;5.28;;;1.52;;
81801;SDS011;71199;52.490;5.448;2023-10-31T00:18:02;9.30;;;2.17;;
81801;SDS011;71199;52.490;5.448;2023-10-31T00:20:27;6.82;;;2.25;;
81801;SDS011;71199;52.490;5.448;2023-10-31T00:22:52;12.48;;;2.72;;
81801;SDS011;71199;52.490;5.448;2023-10-31T00:25:18;11.27;;;4.10;;
81801;SDS011;71199;52.490;5.448;2023-10-31T00:27:43;9.57;;;3.20;;
81801;SDS011;71199;52.490;5.448;2023-10-31T00:30:09;9.75;;;4.45;;
81801;SDS011;71199;52.490;5.448;2023-10-31T00:32:34;9.15;;;3.72;;
81801;SDS011;71199;52.490;5.448;2023-10-31T00:35:00;11.13;;;3.53;;
81801;SDS011;71199;52.490;5.448;2023-10-31T00:37:25;8.90;;;3.05;;
81801;SDS011;71199;52.490;5.448;2023-10-31T00:39:50;9.00;;;3.10;;
81801;SDS011;71199;52.490;5.448;2023-10-31T00:42:16;9.77;;;2.80;;
81801;SDS011;71199;52.490;5.448;2023-10-31T00:44:42;10.07;;;3.40;;
81801;SDS011;71199;52.490;5.448;2023-10-31T00:47:07;9.90;;;3.37;;
81801;SDS011;71199;52.490;5.448;2023-10-31T00:49:32;7.03;;;3.70;;
81801;SDS011;71199;52.490;5.448;2023-10-31T00:51:58;9.17;;;3.80;;
81801;SDS011;71199;52.490;5.448;2023-10-31T00:54:23;10.80;;;3.37;;
81801;SDS011;71199;52.490;5.448;2023-10-31T00:56:48;8.70;;;4.20;;
81801;SDS011;71199;52.490;5.448;2023-10-31T00:59:14;10.40;;;3.83;;
81801;SDS011;71199;52.490;5.448;2023-10-31T01:01:39;11.37;;;4.37;;
81801;SDS011;71199;52.490;5.448;2023-10-31T01:04:04;12.68;;;3.35;;
81801;SDS011;71199;52.490;5.448;2023-10-31T01:06:30;9.55;;;3.95;;
81801;SDS011;71199;52.490;5.448;2023-10-31T01:08:55;7.57;;;3.20;;
81801;SDS011;71199;52.490;5.448;2023-10-31T01:11:20;9.70;;;3.27;;
81801;SDS011;71199;52.490;5.448;2023-10-31T01:13:46;8.43;;;2.93;;
81801;SDS011;71199;52.490;5.448;2023-10-31T01:16:11;7.82;;;2.80;;
81801;SDS011;71199;52.490;5.448;2023-10-31T01:18:37;9.52;;;3.30;;
81801;SDS011;71199;52.490;5.448;2023-10-31T01:21:02;7.43;;;2.90;;
81801;SDS011;71199;52.490;5.448;2023-10-31T01:23:28;10.77;;;3.08;;
81801;SDS011;71199;52.490;5.448;2023-10-31T01:25:53;6.90;;;2.93;;
81801;SDS011;71199;52.490;5.448;2023-10-31T01:28:18;7.60;;;3.00;;
81801;SDS011;71199;52.490;5.448;2023-10-31T01:30:44;7.15;;;4.20;;
81801;SDS011;71199;52.490;5.448;2023-10-31T01:33:09;11.70;;;3.72;;
81801;SDS011;71199;52.490;5.448;2023-10-31T01:35:34;10.60;;;4.07;;
81801;SDS011;71199;52.490;5.448;2023-10-31T01:38:00;14.23;;;4.60;;
81801;SDS011;71199;52.490;5.448;2023-10-31T01:40:25;11.35;;;4.53;;
81801;SDS011;71199;52.490;5.448;2023-10-31T01:42:51;14.90;;;5.90;;
81801;SDS011;71199;52.490;5.448;2023-10-31T01:45:16;12.60;;;5.30;;
81801;SDS011;71199;52.490;5.448;2023-10-31T01:47:42;16.55;;;7.20;;
81801;SDS011;71199;52.490;5.448;2023-10-31T01:50:11;13.57;;;5.82;;
81801;SDS011;71199;52.490;5.448;2023-10-31T01:52:37;12.47;;;5.27;;
81801;SDS011;71199;52.490;5.448;2023-10-31T01:55:02;16.00;;;5.07;;
81801;SDS011;71199;52.490;5.448;2023-10-31T01:57:29;12.18;;;5.07;;
81801;SDS011;71199;52.490;5.448;2023-10-31T01:59:55;11.57;;;4.40;;
81801;SDS011;71199;52.490;5.448;2023-10-31T02:02:21;13.95;;;4.50;;
81801;SDS011;71199;52.490;5.448;2023-10-31T02:04:49;11.90;;;3.97;;
81801;SDS011;71199;52.490;5.448;2023-10-31T02:07:15;10.45;;;4.13;;
81801;SDS011;71199;52.490;5.448;2023-10-31T02:09:40;11.53;;;4.87;;
81801;SDS011;71199;52.490;5.448;2023-10-31T02:12:06;12.82;;;4.70;;
81801;SDS011;71199;52.490;5.448;2023-10-31T02:14:31;15.55;;;5.15;;
81801;SDS011;71199;52.490;5.448;2023-10-31T02:16:57;9.98;;;4.93;;
81801;SDS011;71199;52.490;5.448;2023-10-31T02:19:22;13.37;;;5.40;;
81801;SDS011;71199;52.490;5.448;2023-10-31T02:21:47;10.38;;;4.90;;
81801;SDS011;71199;52.490;5.448;2023-10-31T02:24:13;12.10;;;5.50;;
81801;SDS011;71199;52.490;5.448;2023-10-31T02:26:38;13.07;;;5.65;;
81801;SDS011;71199;52.490;5.448;2023-10-31T02:29:04;14.37;;;6.33;;
81801;SDS011;71199;52.490;5.448;2023-10-31T02:31:29;13.23;;;6.05;;
81801;SDS011;71199;52.490;5.448;2023-10-31T02:33:55;14.20;;;5.65;;
81801;SDS011;71199;52.490;5.448;2023-10-31T02:36:21;20.95;;;6.97;;
81801;SDS011;71199;52.490;5.448;2023-10-31T02:38:46;16.35;;;6.43;;
81801;SDS011;71199;52.490;5.448;2023-10-31T02:41:12;15.02;;;6.72;;
81801;SDS011;71199;52.490;5.448;2023-10-31T02:43:38;13.65;;;6.88;;
81801;SDS011;71199;52.490;5.448;2023-10-31T02:46:04;17.70;;;6.90;;
81801;SDS011;71199;52.490;5.448;2023-10-31T02:48:30;21.02;;;7.15;;
81801;SDS011;71199;52.490;5.448;2023-10-31T02:51:03;20.23;;;6.63;;
81801;SDS011;71199;52.490;5.448;2023-10-31T02:53:29;17.33;;;6.90;;
81801;SDS011;71199;52.490;5.448;2023-10-31T02:55:54;15.60;;;7.00;;
81801;SDS011;71199;52.490;5.448;2023-10-31T02:58:20;15.63;;;7.10;;
81801;SDS011;71199;52.490;5.448;2023-10-31T03:00:45;15.57;;;6.27;;
81801;SDS011;71199;52.490;5.448;2023-10-31T03:03:10;19.27;;;6.20;;
81801;SDS011;71199;52.490;5.448;2023-10-31T03:05:36;14.80;;;6.27;;
81801;SDS011;71199;52.490;5.448;2023-10-31T03:08:01;19.37;;;5.13;;
81801;SDS011;71199;52.490;5.448;2023-10-31T03:10:26;14.43;;;4.00;;
81801;SDS011;71199;52.490;5.448;2023-10-31T03:12:52;12.05;;;4.43;;
81801;SDS011;71199;52.490;5.448;2023-10-31T03:15:17;10.90;;;3.10;;
81801;SDS011;71199;52.490;5.448;2023-10-31T03:17:42;10.97;;;3.63;;
81801;SDS011;71199;52.490;5.448;2023-10-31T03:20:08;9.73;;;3.30;;
81801;SDS011;71199;52.490;5.448;2023-10-31T03:22:34;8.70;;;4.32;;
81801;SDS011;71199;52.490;5.448;2023-10-31T03:25:00;8.60;;;3.15;;
81801;SDS011;71199;52.490;5.448;2023-10-31T03:27:26;5.22;;;2.30;;
81801;SDS011;71199;52.490;5.448;2023-10-31T03:29:51;8.25;;;2.40;;
81801;SDS011;71199;52.490;5.448;2023-10-31T03:32:16;8.27;;;2.37;;
81801;SDS011;71199;52.490;5.448;2023-10-31T03:34:42;4.97;;;2.17;;
81801;SDS011;71199;52.490;5.448;2023-10-31T03:37:07;6.37;;;2.10;;
81801;SDS011;71199;52.490;5.448;2023-10-31T03:39:32;7.63;;;2.17;;
81801;SDS011;71199;52.490;5.448;2023-10-31T03:41:58;5.35;;;2.45;;
81801;SDS011;71199;52.490;5.448;2023-10-31T03:44:24;8.68;;;2.88;;
81801;SDS011;71199;52.490;5.448;2023-10-31T03:46:50;14.05;;;3.03;;
81801;SDS011;71199;52.490;5.448;2023-10-31T03:49:15;9.77;;;2.53;;
81801;SDS011;71199;52.490;5.448;2023-10-31T03:51:40;5.53;;;1.73;;
81801;SDS011;71199;52.490;5.448;2023-10-31T03:54:06;4.80;;;1.37;;
81801;SDS011;71199;52.490;5.448;2023-10-31T03:56:37;3.50;;;1.15;;
81801;SDS011;71199;52.490;5.448;2023-10-31T03:59:03;3.97;;;1.20;;
81801;SDS011;71199;52.490;5.448;2023-10-31T04:01:29;4.83;;;1.20;;
81801;SDS011;71199;52.490;5.448;2023-10-31T04:03:54;8.10;;;1.37;;
81801;SDS011;71199;52.490;5.448;2023-10-31T04:06:19;5.40;;;1.37;;
81801;SDS011;71199;52.490;5.448;2023-10-31T04:08:45;5.03;;;1.03;;
81801;SDS011;71199;52.490;5.448;2023-10-31T04:11:10;4.37;;;1.40;;
81801;SDS011;71199;52.490;5.448;2023-10-31T04:13:35;5.17;;;1.37;;
81801;SDS011;71199;52.490;5.448;2023-10-31T04:16:01;3.57;;;1.40;;
81801;SDS011;71199;52.490;5.448;2023-10-31T04:18:26;3.17;;;1.60;;
81801;SDS011;71199;52.490;5.448;2023-10-31T04:20:52;3.97;;;1.10;;
81801;SDS011;71199;52.490;5.448;2023-10-31T04:23:17;3.93;;;1.20;;
81801;SDS011;71199;52.490;5.448;2023-10-31T04:25:42;4.53;;;1.43;;
81801;SDS011;71199;52.490;5.448;2023-10-31T04:28:08;4.30;;;1.43;;
81801;SDS011;71199;52.490;5.448;2023-10-31T04:30:33;6.80;;;1.58;;
81801;SDS011;71199;52.490;5.448;2023-10-31T04:32:58;6.83;;;1.57;;
81801;SDS011;71199;52.490;5.448;2023-10-31T04:35:24;4.47;;;1.10;;
81801;SDS011;71199;52.490;5.448;2023-10-31T04:37:49;4.63;;;1.33;;
81801;SDS011;71199;52.490;5.448;2023-10-31T04:40:14;4.25;;;1.20;;
81801;SDS011;71199;52.490;5.448;2023-10-31T04:42:40;4.53;;;1.15;;
81801;SDS011;71199;52.490;5.448;2023-10-31T04:45:06;5.68;;;1.50;;
81801;SDS011;71199;52.490;5.448;2023-10-31T04:47:32;4.20;;;1.20;;
81801;SDS011;71199;52.490;5.448;2023-10-31T04:49:57;3.17;;;1.17;;
81801;SDS011;71199;52.490;5.448;2023-10-31T04:52:22;5.23;;;1.20;;
81801;SDS011;71199;52.490;5.448;2023-10-31T04:54:50;3.33;;;1.20;;
81801;SDS011;71199;52.490;5.448;2023-10-31T04:57:16;4.38;;;0.88;;
81801;SDS011;71199;52.490;5.448;2023-10-31T04:59:41;5.67;;;1.30;;
81801;SDS011;71199;52.490;5.448;2023-10-31T05:02:07;2.55;;;0.95;;
81801;SDS011;71199;52.490;5.448;2023-10-31T05:04:32;4.87;;;1.13;;
81801;SDS011;71199;52.490;5.448;2023-10-31T05:06:58;3.20;;;0.80;;
81801;SDS011;71199;52.490;5.448;2023-10-31T05:09:23;4.60;;;1.27;;
81801;SDS011;71199;52.490;5.448;2023-10-31T05:11:48;5.13;;;1.17;;
81801;SDS011;71199;52.490;5.448;2023-10-31T05:14:14;3.23;;;1.20;;
81801;SDS011;71199;52.490;5.448;2023-10-31T05:16:40;2.63;;;1.00;;
81801;SDS011;71199;52.490;5.448;2023-10-31T05:19:08;3.60;;;1.02;;
81801;SDS011;71199;52.490;5.448;2023-10-31T05:21:34;3.72;;;1.23;;
81801;SDS011;71199;52.490;5.448;2023-10-31T05:23:59;3.30;;;0.97;;
81801;SDS011;71199;52.490;5.448;2023-10-31T05:26:25;2.88;;;0.98;;
81801;SDS011;71199;52.490;5.448;2023-10-31T05:28:52;7.43;;;1.30;;
81801;SDS011;71199;52.490;5.448;2023-10-31T05:31:18;2.95;;;1.33;;
81801;SDS011;71199;52.490;5.448;2023-10-31T05:33:43;3.63;;;1.30;;
81801;SDS011;71199;52.490;5.448;2023-10-31T05:36:21;3.42;;;1.00;;
81801;SDS011;71199;52.490;5.448;2023-10-31T05:38:48;2.90;;;1.20;;
81801;SDS011;71199;52.490;5.448;2023-10-31T05:41:13;2.00;;;0.93;;
81801;SDS011;71199;52.490;5.448;2023-10-31T05:43:39;2.88;;;1.02;;
81801;SDS011;71199;52.490;5.448;2023-10-31T05:46:05;3.78;;;1.20;;
81801;SDS011;71199;52.490;5.448;2023-10-31T05:48:31;8.93;;;1.50;;
81801;SDS011;71199;52.490;5.448;2023-10-31T05:50:57;3.55;;;1.33;;
81801;SDS011;71199;52.490;5.448;2023-10-31T05:53:22;4.20;;;1.20;;
81801;SDS011;71199;52.490;5.448;2023-10-31T05:55:47;5.73;;;1.63;;
81801;SDS011;71199;52.490;5.448;2023-10-31T05:58:13;2.60;;;0.97;;
81801;SDS011;71199;52.490;5.448;2023-10-31T06:00:38;5.07;;;1.20;;
81801;SDS011;71199;52.490;5.448;2023-10-31T06:03:04;4.17;;;1.00;;
81801;SDS011;71199;52.490;5.448;2023-10-31T06:05:29;2.65;;;1.02;;
81801;SDS011;71199;52.490;5.448;2023-10-31T06:07:55;6.63;;;1.63;;
81801;SDS011;71199;52.490;5.448;2023-10-31T06:10:21;5.82;;;1.30;;
81801;SDS011;71199;52.490;5.448;2023-10-31T06:12:46;5.88;;;1.35;;
81801;SDS011;71199;52.490;5.448;2023-10-31T06:15:12;3.80;;;1.35;;
81801;SDS011;71199;52.490;5.448;2023-10-31T06:17:37;2.38;;;1.00;;
81801;SDS011;71199;52.490;5.448;2023-10-31T06:20:02;2.80;;;1.30;;
81801;SDS011;71199;52.490;5.448;2023-10-31T06:22:28;2.90;;;1.20;;
81801;SDS011;71199;52.490;5.448;2023-10-31T06:24:53;5.47;;;1.50;;
81801;SDS011;71199;52.490;5.448;2023-10-31T06:27:19;2.93;;;1.17;;
81801;SDS011;71199;52.490;5.448;2023-10-31T06:29:44;2.90;;;1.43;;
81801;SDS011;71199;52.490;5.448;2023-10-31T06:32:09;5.40;;;1.50;;
81801;SDS011;71199;52.490;5.448;2023-10-31T06:34:35;5.47;;;1.70;;
81801;SDS011;71199;52.490;5.448;2023-10-31T06:37:00;3.77;;;1.67;;
81801;SDS011;71199;52.490;5.448;2023-10-31T06:39:25;4.07;;;2.27;;
81801;SDS011;71199;52.490;5.448;2023-10-31T06:41:54;6.57;;;2.22;;
81801;SDS011;71199;52.490;5.448;2023-10-31T06:44:21;5.85;;;2.17;;
81801;SDS011;71199;52.490;5.448;2023-10-31T06:46:46;6.50;;;2.35;;
81801;SDS011;71199;52.490;5.448;2023-10-31T06:49:11;6.33;;;2.53;;
81801;SDS011;71199;52.490;5.448;2023-10-31T06:51:37;6.73;;;2.87;;
81801;SDS011;71199;52.490;5.448;2023-10-31T06:54:02;8.90;;;3.10;;
81801;SDS011;71199;52.490;5.448;2023-10-31T06:56:27;6.75;;;3.53;;
81801;SDS011;71199;52.490;5.448;2023-10-31T06:58:53;10.40;;;3.22;;
81801;SDS011;71199;52.490;5.448;2023-10-31T07:01:19;7.63;;;2.92;;
81801;SDS011;71199;52.490;5.448;2023-10-31T07:03:44;7.57;;;3.37;;
81801;SDS011;71199;52.490;5.448;2023-10-31T07:06:10;10.25;;;3.05;;
81801;SDS011;71199;52.490;5.448;2023-10-31T07:08:35;5.15;;;2.92;;
81801;SDS011;71199;52.490;5.448;2023-10-31T07:11:01;5.80;;;2.70;;
81801;SDS011;71199;52.490;5.448;2023-10-31T07:13:26;7.05;;;2.70;;
81801;SDS011;71199;52.490;5.448;2023-10-31T07:15:51;4.53;;;2.30;;
81801;SDS011;71199;52.490;5.448;2023-10-31T07:18:17;4.17;;;2.50;;
81801;SDS011;71199;52.490;5.448;2023-10-31T07:20:42;6.77;;;2.43;;
81801;SDS011;71199;52.490;5.448;2023-10-31T07:23:07;10.63;;;2.40;;
81801;SDS011;71199;52.490;5.448;2023-10-31T07:25:33;6.80;;;2.40;;
81801;SDS011;71199;52.490;5.448;2023-10-31T07:27:58;6.77;;;2.40;;
81801;SDS011;71199;52.490;5.448;2023-10-31T07:30:23;6.05;;;2.00;;
81801;SDS011;71199;52.490;5.448;2023-10-31T07:32:49;6.95;;;2.65;;
81801;SDS011;71199;52.490;5.448;2023-10-31T07:35:14;4.63;;;2.30;;
81801;SDS011;71199;52.490;5.448;2023-10-31T07:37:39;7.60;;;2.43;;
81801;SDS011;71199;52.490;5.448;2023-10-31T07:40:05;7.07;;;2.67;;
81801;SDS011;71199;52.490;5.448;2023-10-31T07:42:31;9.40;;;2.63;;
81801;SDS011;71199;52.490;5.448;2023-10-31T07:44:56;5.40;;;2.80;;
81801;SDS011;71199;52.490;5.448;2023-10-31T07:47:21;8.57;;;3.13;;
81801;SDS011;71199;52.490;5.448;2023-10-31T07:49:47;5.63;;;2.57;;
81801;SDS011;71199;52.490;5.448;2023-10-31T07:52:13;7.15;;;3.17;;
81801;SDS011;71199;52.490;5.448;2023-10-31T07:54:39;6.30;;;3.70;;
81801;SDS011;71199;52.490;5.448;2023-10-31T07:57:05;7.63;;;3.35;;
81801;SDS011;71199;52.490;5.448;2023-10-31T07:59:34;10.00;;;4.38;;
81801;SDS011;71199;52.490;5.448;2023-10-31T08:02:00;15.88;;;5.70;;
81801;SDS011;71199;52.490;5.448;2023-10-31T08:04:26;10.80;;;6.10;;
81801;SDS011;71199;52.490;5.448;2023-10-31T08:06:53;10.18;;;5.57;;
81801;SDS011;71199;52.490;5.448;2023-10-31T08:09:18;11.48;;;5.07;;
81801;SDS011;71199;52.490;5.448;2023-10-31T08:11:43;11.83;;;5.70;;
81801;SDS011;71199;52.490;5.448;2023-10-31T08:14:09;8.63;;;4.97;;
81801;SDS011;71199;52.490;5.448;2023-10-31T08:16:35;8.98;;;5.35;;
81801;SDS011;71199;52.490;5.448;2023-10-31T08:19:00;9.55;;;4.97;;
81801;SDS011;71199;52.490;5.448;2023-10-31T08:21:26;11.10;;;4.93;;
81801;SDS011;71199;52.490;5.448;2023-10-31T08:23:53;11.05;;;4.78;;
81801;SDS011;71199;52.490;5.448;2023-10-31T08:26:19;8.85;;;5.05;;
81801;SDS011;71199;52.490;5.448;2023-10-31T08:28:44;7.57;;;4.50;;
81801;SDS011;71199;52.490;5.448;2023-10-31T08:31:10;14.60;;;5.87;;
81801;SDS011;71199;52.490;5.448;2023-10-31T08:33:35;10.93;;;5.22;;
81801;SDS011;71199;52.490;5.448;2023-10-31T08:36:00;11.07;;;5.45;;
81801;SDS011;71199;52.490;5.448;2023-10-31T08:38:26;11.15;;;5.57;;
81801;SDS011;71199;52.490;5.448;2023-10-31T08:40:53;11.63;;;5.68;;
81801;SDS011;71199;52.490;5.448;2023-10-31T08:43:18;7.38;;;4.63;;
81801;SDS011;71199;52.490;5.448;2023-10-31T08:45:44;10.23;;;5.27;;
81801;SDS011;71199;52.490;5.448;2023-10-31T08:48:09;12.30;;;4.33;;
81801;SDS011;71199;52.490;5.448;2023-10-31T08:50:34;10.07;;;4.00;;
81801;SDS011;71199;52.490;5.448;2023-10-31T08:53:00;12.30;;;4.30;;
81801;SDS011;71199;52.490;5.448;2023-10-31T08:55:25;7.75;;;3.97;;
81801;SDS011;71199;52.490;5.448;2023-10-31T08:57:51;8.47;;;4.23;;
81801;SDS011;71199;52.490;5.448;2023-10-31T09:00:18;10.75;;;4.97;;
81801;SDS011;71199;52.490;5.448;2023-10-31T09:05:09;7.70;;;4.17;;
81801;SDS011;71199;52.490;5.448;2023-10-31T09:07:35;7.57;;;4.13;;
81801;SDS011;71199;52.490;5.448;2023-10-31T09:10:00;9.60;;;3.90;;
81801;SDS011;71199;52.490;5.448;2023-10-31T09:12:25;7.67;;;4.47;;
81801;SDS011;71199;52.490;5.448;2023-10-31T09:14:51;8.98;;;4.25;;
81801;SDS011;71199;52.490;5.448;2023-10-31T09:17:17;7.90;;;3.72;;
81801;SDS011;71199;52.490;5.448;2023-10-31T09:19:42;6.23;;;3.90;;
81801;SDS011;71199;52.490;5.448;2023-10-31T09:22:07;9.07;;;4.22;;
81801;SDS011;71199;52.490;5.448;2023-10-31T09:24:33;8.03;;;3.87;;
81801;SDS011;71199;52.490;5.448;2023-10-31T09:26:59;7.40;;;3.72;;
81801;SDS011;71199;52.490;5.448;2023-10-31T09:29:24;6.93;;;3.63;;
81801;SDS011;71199;52.490;5.448;2023-10-31T09:31:49;6.53;;;3.50;;
81801;SDS011;71199;52.490;5.448;2023-10-31T09:34:15;7.50;;;4.40;;
81801;SDS011;71199;52.490;5.448;2023-10-31T09:36:40;6.93;;;3.90;;
81801;SDS011;71199;52.490;5.448;2023-10-31T09:39:07;9.18;;;4.25;;
81801;SDS011;71199;52.490;5.448;2023-10-31T09:41:32;6.38;;;3.42;;
81801;SDS011;71199;52.490;5.448;2023-10-31T09:43:58;7.28;;;3.40;;
81801;SDS011;71199;52.490;5.448;2023-10-31T09:46:23;6.68;;;3.88;;
81801;SDS011;71199;52.490;5.448;2023-10-31T09:48:49;7.30;;;3.28;;
81801;SDS011;71199;52.490;5.448;2023-10-31T09:51:15;7.32;;;3.28;;
81801;SDS011;71199;52.490;5.448;2023-10-31T09:53:41;8.70;;;3.22;;
81801;SDS011;71199;52.490;5.448;2023-10-31T09:56:09;10.40;;;3.70;;
81801;SDS011;71199;52.490;5.448;2023-10-31T09:58:35;8.55;;;3.28;;
81801;SDS011;71199;52.490;5.448;2023-10-31T10:01:00;10.38;;;3.88;;
81801;SDS011;71199;52.490;5.448;2023-10-31T10:03:26;7.53;;;3.65;;
81801;SDS011;71199;52.490;5.448;2023-10-31T10:05:52;6.40;;;2.97;;
81801;SDS011;71199;52.490;5.448;2023-10-31T10:08:17;12.15;;;3.17;;
81801;SDS011;71199;52.490;5.448;2023-10-31T10:10:43;7.78;;;2.92;;
81801;SDS011;71199;52.490;5.448;2023-10-31T10:13:08;5.00;;;2.57;;
81801;SDS011;71199;52.490;5.448;2023-10-31T10:15:47;9.27;;;2.22;;
81801;SDS011;71199;52.490;5.448;2023-10-31T10:18:26;4.45;;;1.70;;
81801;SDS011;71199;52.490;5.448;2023-10-31T10:20:55;5.10;;;1.77;;
81801;SDS011;71199;52.490;5.448;2023-10-31T10:23:22;5.45;;;1.90;;
81801;SDS011;71199;52.490;5.448;2023-10-31T10:25:49;5.25;;;2.13;;
81801;SDS011;71199;52.490;5.448;2023-10-31T10:28:15;4.13;;;1.50;;
81801;SDS011;71199;52.490;5.448;2023-10-31T10:30:40;5.47;;;1.83;;
81801;SDS011;71199;52.490;5.448;2023-10-31T10:33:06;8.35;;;1.80;;
81801;SDS011;71199;52.490;5.448;2023-10-31T10:35:31;6.20;;;2.08;;
81801;SDS011;71199;52.490;5.448;2023-10-31T10:37:57;3.60;;;1.40;;
81801;SDS011;71199;52.490;5.448;2023-10-31T10:40:24;3.53;;;1.25;;
81801;SDS011;71199;52.490;5.448;2023-10-31T10:45:22;5.90;;;1.73;;
81801;SDS011;71199;52.490;5.448;2023-10-31T10:47:50;5.70;;;1.67;;
81801;SDS011;71199;52.490;5.448;2023-10-31T10:50:18;6.10;;;1.63;;
81801;SDS011;71199;52.490;5.448;2023-10-31T10:52:49;4.88;;;1.38;;
81801;SDS011;71199;52.490;5.448;2023-10-31T10:55:38;4.15;;;1.10;;
81801;SDS011;71199;52.490;5.448;2023-10-31T10:58:08;4.55;;;1.42;;
81801;SDS011;71199;52.490;5.448;2023-10-31T11:00:37;3.67;;;0.98;;
81801;SDS011;71199;52.490;5.448;2023-10-31T11:03:04;3.88;;;1.67;;
81801;SDS011;71199;52.490;5.448;2023-10-31T11:05:31;5.88;;;1.58;;
81801;SDS011;71199;52.490;5.448;2023-10-31T11:07:57;3.97;;;1.25;;
81801;SDS011;71199;52.490;5.448;2023-10-31T11:10:23;7.25;;;1.27;;
81801;SDS011;71199;52.490;5.448;2023-10-31T11:12:49;6.95;;;1.48;;
81801;SDS011;71199;52.490;5.448;2023-10-31T11:15:16;7.53;;;1.98;;
81801;SDS011;71199;52.490;5.448;2023-10-31T11:17:43;4.50;;;1.00;;
81801;SDS011;71199;52.490;5.448;2023-10-31T11:22:39;7.78;;;1.65;;
81801;SDS011;71199;52.490;5.448;2023-10-31T11:25:08;4.78;;;1.65;;
81801;SDS011;71199;52.490;5.448;2023-10-31T11:27:35;3.17;;;1.45;;
81801;SDS011;71199;52.490;5.448;2023-10-31T11:30:04;5.05;;;1.05;;
81801;SDS011;71199;52.490;5.448;2023-10-31T11:32:31;4.10;;;1.00;;
81801;SDS011;71199;52.490;5.448;2023-10-31T11:34:57;5.25;;;1.40;;
81801;SDS011;71199;52.490;5.448;2023-10-31T11:37:23;6.97;;;1.08;;
81801;SDS011;71199;52.490;5.448;2023-10-31T11:42:52;4.95;;;1.02;;
81801;SDS011;71199;52.490;5.448;2023-10-31T11:45:28;6.93;;;1.20;;
81801;SDS011;71199;52.490;5.448;2023-10-31T11:47:54;5.55;;;1.50;;
81801;SDS011;71199;52.490;5.448;2023-10-31T11:50:21;5.57;;;1.15;;
81801;SDS011;71199;52.490;5.448;2023-10-31T11:55:31;5.07;;;1.50;;
81801;SDS011;71199;52.490;5.448;2023-10-31T12:00:46;5.90;;;1.42;;
81801;SDS011;71199;52.490;5.448;2023-10-31T12:03:16;3.97;;;1.00;;
81801;SDS011;71199;52.490;5.448;2023-10-31T12:08:51;3.97;;;1.15;;
81801;SDS011;71199;52.490;5.448;2023-10-31T12:11:13;6.55;;;1.27;;
81801;SDS011;71199;52.490;5.448;2023-10-31T12:13:55;4.95;;;1.20;;
81801;SDS011;71199;52.490;5.448;2023-10-31T12:16:23;3.17;;;1.05;;
81801;SDS011;71199;52.490;5.448;2023-10-31T12:18:59;5.60;;;0.90;;
81801;SDS011;71199;52.490;5.448;2023-10-31T12:21:42;6.63;;;0.93;;
81801;SDS011;71199;52.490;5.448;2023-10-31T12:24:09;3.70;;;0.82;;
81801;SDS011;71199;52.490;5.448;2023-10-31T12:26:36;3.20;;;0.90;;
81801;SDS011;71199;52.490;5.448;2023-10-31T12:31:40;2.38;;;0.80;;
81801;SDS011;71199;52.490;5.448;2023-10-31T12:34:11;7.45;;;1.33;;
81801;SDS011;71199;52.490;5.448;2023-10-31T12:36:37;3.88;;;0.93;;
81801;SDS011;71199;52.490;5.448;2023-10-31T12:39:04;3.75;;;1.27;;
81801;SDS011;71199;52.490;5.448;2023-10-31T12:41:34;1.92;;;0.85;;
81801;SDS011;71199;52.490;5.448;2023-10-31T12:44:00;2.40;;;0.90;;
81801;SDS011;71199;52.490;5.448;2023-10-31T12:46:29;3.08;;;1.02;;
81801;SDS011;71199;52.490;5.448;2023-10-31T12:48:59;4.47;;;0.90;;
81801;SDS011;71199;52.490;5.448;2023-10-31T12:51:24;3.42;;;0.95;;
81801;SDS011;71199;52.490;5.448;2023-10-31T12:53:50;4.25;;;1.42;;
81801;SDS011;71199;52.490;5.448;2023-10-31T12:59:07;6.88;;;1.17;;
81801;SDS011;71199;52.490;5.448;2023-10-31T13:01:42;1.83;;;1.08;;
81801;SDS011;71199;52.490;5.448;2023-10-31T13:04:08;2.58;;;1.17;;
81801;SDS011;71199;52.490;5.448;2023-10-31T13:06:34;3.55;;;0.73;;
81801;SDS011;71199;52.490;5.448;2023-10-31T13:09:00;3.75;;;1.20;;
81801;SDS011;71199;52.490;5.448;2023-10-31T13:11:29;4.70;;;0.90;;
81801;SDS011;71199;52.490;5.448;2023-10-31T13:13:55;2.30;;;1.10;;
81801;SDS011;71199;52.490;5.448;2023-10-31T13:16:21;3.65;;;0.93;;
81801;SDS011;71199;52.490;5.448;2023-10-31T13:18:46;3.95;;;0.77;;
81801;SDS011;71199;52.490;5.448;2023-10-31T13:21:12;6.25;;;1.98;;
81801;SDS011;71199;52.490;5.448;2023-10-31T13:23:39;6.38;;;1.90;;
81801;SDS011;71199;52.490;5.448;2023-10-31T13:26:08;3.00;;;1.45;;
81801;SDS011;71199;52.490;5.448;2023-10-31T13:28:34;5.78;;;1.60;;
81801;SDS011;71199;52.490;5.448;2023-10-31T13:31:00;5.15;;;1.60;;
81801;SDS011;71199;52.490;5.448;2023-10-31T13:33:25;6.35;;;1.63;;
81801;SDS011;71199;52.490;5.448;2023-10-31T13:35:50;3.38;;;1.13;;
81801;SDS011;71199;52.490;5.448;2023-10-31T13:38:16;3.63;;;1.40;;
81801;SDS011;71199;52.490;5.448;2023-10-31T13:40:41;2.35;;;1.00;;
81801;SDS011;71199;52.490;5.448;2023-10-31T13:43:07;3.20;;;0.88;;
81801;SDS011;71199;52.490;5.448;2023-10-31T13:45:33;5.45;;;1.48;;
81801;SDS011;71199;52.490;5.448;2023-10-31T13:47:58;3.25;;;1.02;;
81801;SDS011;71199;52.490;5.448;2023-10-31T13:50:24;3.13;;;1.05;;
81801;SDS011;71199;52.490;5.448;2023-10-31T13:52:50;6.68;;;1.27;;
81801;SDS011;71199;52.490;5.448;2023-10-31T13:55:15;4.82;;;1.15;;
81801;SDS011;71199;52.490;5.448;2023-10-31T13:57:41;2.33;;;0.80;;
81801;SDS011;71199;52.490;5.448;2023-10-31T14:00:06;2.53;;;0.70;;
81801;SDS011;71199;52.490;5.448;2023-10-31T14:02:33;4.90;;;1.08;;
81801;SDS011;71199;52.490;5.448;2023-10-31T14:05:00;3.53;;;1.02;;
81801;SDS011;71199;52.490;5.448;2023-10-31T14:07:26;5.93;;;1.00;;
81801;SDS011;71199;52.490;5.448;2023-10-31T14:09:52;3.40;;;0.95;;
81801;SDS011;71199;52.490;5.448;2023-10-31T14:12:17;2.05;;;0.70;;
81801;SDS011;71199;52.490;5.448;2023-10-31T14:14:43;2.72;;;0.93;;
81801;SDS011;71199;52.490;5.448;2023-10-31T14:17:09;2.40;;;0.80;;
81801;SDS011;71199;52.490;5.448;2023-10-31T14:19:36;2.10;;;0.65;;
81801;SDS011;71199;52.490;5.448;2023-10-31T14:22:01;2.50;;;1.10;;
81801;SDS011;71199;52.490;5.448;2023-10-31T14:24:27;2.63;;;0.90;;
81801;SDS011;71199;52.490;5.448;2023-10-31T14:26:53;3.45;;;1.25;;
81801;SDS011;71199;52.490;5.448;2023-10-31T14:29:18;2.10;;;1.20;;
81801;SDS011;71199;52.490;5.448;2023-10-31T14:31:44;2.10;;;1.40;;
81801;SDS011;71199;52.490;5.448;2023-10-31T14:34:09;7.70;;;2.60;;
81801;SDS011;71199;52.490;5.448;2023-10-31T14:36:35;3.55;;;2.40;;
81801;SDS011;71199;52.490;5.448;2023-10-31T14:39:00;4.90;;;2.33;;
81801;SDS011;71199;52.490;5.448;2023-10-31T14:41:26;3.97;;;2.50;;
81801;SDS011;71199;52.490;5.448;2023-10-31T14:43:51;7.03;;;2.60;;
81801;SDS011;71199;52.490;5.448;2023-10-31T14:46:16;5.93;;;2.87;;
81801;SDS011;71199;52.490;5.448;2023-10-31T14:48:42;5.28;;;3.42;;
81801;SDS011;71199;52.490;5.448;2023-10-31T14:51:07;7.68;;;3.70;;
81801;SDS011;71199;52.490;5.448;2023-10-31T14:53:33;6.53;;;3.83;;
81801;SDS011;71199;52.490;5.448;2023-10-31T14:55:59;6.53;;;4.50;;
81801;SDS011;71199;52.490;5.448;2023-10-31T14:58:24;7.18;;;4.60;;
81801;SDS011;71199;52.490;5.448;2023-10-31T15:00:50;9.40;;;4.70;;
81801;SDS011;71199;52.490;5.448;2023-10-31T15:03:16;8.27;;;5.10;;